sensor_id;sensor_type;location;lat;lon;timestamp;P1;durP1;ratioP1;P2;durP2;ratioP2
19030;SDS011;9648;51.130;13.978;2023-06-22T00:00:58;8.52;;;7.25;;
19030;SDS011;9648;51.130;13.978;2023-06-22T00:03:26;9.35;;;7.18;;
19030;SDS011;9648;51.130;13.978;2023-06-22T00:05:52;11.38;;;8.80;;
19030;SDS011;9648;51.130;13.978;2023-06-22T00:08:19;11.50;;;8.70;;
19030;SDS011;9648;51.130;13.978;2023-06-22T00:10:47;9.65;;;8.13;;
19030;SDS011;9648;51.130;13.978;2023-06-22T00:13:14;10.40;;;8.00;;
19030;SDS011;9648;51.130;13.978;2023-06-22T00:15:42;14.48;;;7.82;;
19030;SDS011;9648;51.130;13.978;2023-06-22T00:18:09;10.15;;;7.32;;
19030;SDS011;9648;51.130;13.978;2023-06-22T00:20:37;9.68;;;7.40;;
19030;SDS011;9648;51.130;13.978;2023-06-22T00:23:04;8.38;;;6.97;;
19030;SDS011;9648;51.130;13.978;2023-06-22T00:25:33;9.18;;;7.22;;
19030;SDS011;9648;51.130;13.978;2023-06-22T00:28:01;8.48;;;6.93;;
19030;SDS011;9648;51.130;13.978;2023-06-22T00:30:29;9.77;;;7.43;;
19030;SDS011;9648;51.130;13.978;2023-06-22T00:32:57;9.38;;;7.50;;
19030;SDS011;9648;51.130;13.978;2023-06-22T00:35:24;10.27;;;7.78;;
19030;SDS011;9648;51.130;13.978;2023-06-22T00:37:54;8.45;;;7.20;;
19030;SDS011;9648;51.130;13.978;2023-06-22T00:40:25;9.35;;;6.85;;
19030;SDS011;9648;51.130;13.978;2023-06-22T00:42:52;8.40;;;7.07;;
19030;SDS011;9648;51.130;13.978;2023-06-22T00:45:21;9.88;;;7.45;;
19030;SDS011;9648;51.130;13.978;2023-06-22T00:47:49;9.65;;;7.70;;
19030;SDS011;9648;51.130;13.978;2023-06-22T00:50:18;8.35;;;6.75;;
19030;SDS011;9648;51.130;13.978;2023-06-22T00:52:47;9.63;;;7.30;;
19030;SDS011;9648;51.130;13.978;2023-06-22T00:55:16;9.23;;;7.65;;
19030;SDS011;9648;51.130;13.978;2023-06-22T00:57:44;10.50;;;7.30;;
19030;SDS011;9648;51.130;13.978;2023-06-22T01:00:12;10.60;;;7.55;;
19030;SDS011;9648;51.130;13.978;2023-06-22T01:02:43;9.13;;;7.25;;
19030;SDS011;9648;51.130;13.978;2023-06-22T01:05:11;9.32;;;7.28;;
19030;SDS011;9648;51.130;13.978;2023-06-22T01:07:39;8.50;;;7.30;;
19030;SDS011;9648;51.130;13.978;2023-06-22T01:10:14;8.48;;;7.32;;
19030;SDS011;9648;51.130;13.978;2023-06-22T01:12:48;10.15;;;7.50;;
19030;SDS011;9648;51.130;13.978;2023-06-22T01:15:21;9.63;;;7.70;;
19030;SDS011;9648;51.130;13.978;2023-06-22T01:17:55;9.23;;;7.20;;
19030;SDS011;9648;51.130;13.978;2023-06-22T01:20:23;9.32;;;7.40;;
19030;SDS011;9648;51.130;13.978;2023-06-22T01:22:58;9.10;;;7.65;;
19030;SDS011;9648;51.130;13.978;2023-06-22T01:25:33;9.32;;;7.05;;
19030;SDS011;9648;51.130;13.978;2023-06-22T01:28:20;8.53;;;7.37;;
19030;SDS011;9648;51.130;13.978;2023-06-22T01:30:54;8.85;;;7.32;;
19030;SDS011;9648;51.130;13.978;2023-06-22T01:33:28;7.60;;;6.80;;
19030;SDS011;9648;51.130;13.978;2023-06-22T01:35:57;9.95;;;7.43;;
19030;SDS011;9648;51.130;13.978;2023-06-22T01:38:24;9.10;;;7.10;;
19030;SDS011;9648;51.130;13.978;2023-06-22T01:40:51;8.07;;;6.80;;
19030;SDS011;9648;51.130;13.978;2023-06-22T01:43:19;8.73;;;7.13;;
19030;SDS011;9648;51.130;13.978;2023-06-22T01:45:48;8.60;;;7.07;;
19030;SDS011;9648;51.130;13.978;2023-06-22T01:48:16;10.40;;;7.57;;
19030;SDS011;9648;51.130;13.978;2023-06-22T01:50:43;9.23;;;7.05;;
19030;SDS011;9648;51.130;13.978;2023-06-22T01:53:10;9.70;;;6.93;;
19030;SDS011;9648;51.130;13.978;2023-06-22T01:55:37;15.15;;;11.65;;
19030;SDS011;9648;51.130;13.978;2023-06-22T01:58:03;11.38;;;9.13;;
19030;SDS011;9648;51.130;13.978;2023-06-22T02:00:31;11.00;;;8.40;;
19030;SDS011;9648;51.130;13.978;2023-06-22T02:03:01;11.43;;;8.25;;
19030;SDS011;9648;51.130;13.978;2023-06-22T02:05:36;10.77;;;8.18;;
19030;SDS011;9648;51.130;13.978;2023-06-22T02:08:08;12.73;;;9.50;;
19030;SDS011;9648;51.130;13.978;2023-06-22T02:10:37;10.85;;;8.60;;
19030;SDS011;9648;51.130;13.978;2023-06-22T02:13:06;9.63;;;7.85;;
19030;SDS011;9648;51.130;13.978;2023-06-22T02:15:35;10.77;;;7.70;;
19030;SDS011;9648;51.130;13.978;2023-06-22T02:18:02;9.80;;;7.70;;
19030;SDS011;9648;51.130;13.978;2023-06-22T02:20:30;9.18;;;7.20;;
19030;SDS011;9648;51.130;13.978;2023-06-22T02:22:58;9.20;;;7.63;;
19030;SDS011;9648;51.130;13.978;2023-06-22T02:25:24;9.23;;;7.03;;
19030;SDS011;9648;51.130;13.978;2023-06-22T02:27:51;9.10;;;7.20;;
19030;SDS011;9648;51.130;13.978;2023-06-22T02:30:18;9.80;;;7.50;;
19030;SDS011;9648;51.130;13.978;2023-06-22T02:32:44;11.23;;;7.45;;
19030;SDS011;9648;51.130;13.978;2023-06-22T02:35:11;9.63;;;7.22;;
19030;SDS011;9648;51.130;13.978;2023-06-22T02:37:38;8.48;;;7.07;;
19030;SDS011;9648;51.130;13.978;2023-06-22T02:40:08;11.40;;;7.78;;
19030;SDS011;9648;51.130;13.978;2023-06-22T02:42:35;9.48;;;7.45;;
19030;SDS011;9648;51.130;13.978;2023-06-22T02:45:04;8.70;;;7.50;;
19030;SDS011;9648;51.130;13.978;2023-06-22T02:47:34;8.10;;;6.97;;
19030;SDS011;9648;51.130;13.978;2023-06-22T02:50:01;9.75;;;7.32;;
19030;SDS011;9648;51.130;13.978;2023-06-22T02:52:28;8.15;;;6.90;;
19030;SDS011;9648;51.130;13.978;2023-06-22T02:54:54;8.45;;;7.07;;
19030;SDS011;9648;51.130;13.978;2023-06-22T02:57:22;9.63;;;7.75;;
19030;SDS011;9648;51.130;13.978;2023-06-22T02:59:49;9.38;;;7.65;;
19030;SDS011;9648;51.130;13.978;2023-06-22T03:02:16;9.05;;;7.50;;
19030;SDS011;9648;51.130;13.978;2023-06-22T03:04:42;8.57;;;7.45;;
19030;SDS011;9648;51.130;13.978;2023-06-22T03:07:13;8.50;;;7.43;;
19030;SDS011;9648;51.130;13.978;2023-06-22T03:09:40;10.10;;;7.75;;
19030;SDS011;9648;51.130;13.978;2023-06-22T03:12:08;9.50;;;7.00;;
19030;SDS011;9648;51.130;13.978;2023-06-22T03:14:36;10.60;;;7.32;;
19030;SDS011;9648;51.130;13.978;2023-06-22T03:17:03;9.75;;;7.15;;
19030;SDS011;9648;51.130;13.978;2023-06-22T03:19:31;12.07;;;7.03;;
19030;SDS011;9648;51.130;13.978;2023-06-22T03:21:59;10.30;;;7.50;;
19030;SDS011;9648;51.130;13.978;2023-06-22T03:24:26;9.40;;;6.97;;
19030;SDS011;9648;51.130;13.978;2023-06-22T03:26:54;10.18;;;7.10;;
19030;SDS011;9648;51.130;13.978;2023-06-22T03:29:21;10.10;;;7.70;;
19030;SDS011;9648;51.130;13.978;2023-06-22T03:31:50;10.60;;;7.75;;
19030;SDS011;9648;51.130;13.978;2023-06-22T03:34:16;10.75;;;7.25;;
19030;SDS011;9648;51.130;13.978;2023-06-22T03:36:44;11.17;;;7.57;;
19030;SDS011;9648;51.130;13.978;2023-06-22T03:39:11;9.82;;;7.88;;
19030;SDS011;9648;51.130;13.978;2023-06-22T03:41:37;11.18;;;7.97;;
19030;SDS011;9648;51.130;13.978;2023-06-22T03:44:04;10.80;;;7.97;;
19030;SDS011;9648;51.130;13.978;2023-06-22T03:46:31;10.57;;;7.55;;
19030;SDS011;9648;51.130;13.978;2023-06-22T03:48:59;10.10;;;7.85;;
19030;SDS011;9648;51.130;13.978;2023-06-22T03:51:28;11.73;;;7.28;;
19030;SDS011;9648;51.130;13.978;2023-06-22T03:53:55;7.95;;;6.50;;
19030;SDS011;9648;51.130;13.978;2023-06-22T03:56:21;9.40;;;7.40;;
19030;SDS011;9648;51.130;13.978;2023-06-22T03:58:48;10.40;;;7.80;;
19030;SDS011;9648;51.130;13.978;2023-06-22T04:01:15;11.43;;;8.20;;
19030;SDS011;9648;51.130;13.978;2023-06-22T04:03:42;10.00;;;7.47;;
19030;SDS011;9648;51.130;13.978;2023-06-22T04:06:10;10.90;;;7.80;;
19030;SDS011;9648;51.130;13.978;2023-06-22T04:08:37;11.05;;;8.00;;
19030;SDS011;9648;51.130;13.978;2023-06-22T04:11:04;9.68;;;7.40;;
19030;SDS011;9648;51.130;13.978;2023-06-22T04:13:31;12.50;;;7.45;;
19030;SDS011;9648;51.130;13.978;2023-06-22T04:15:57;9.85;;;7.65;;
19030;SDS011;9648;51.130;13.978;2023-06-22T04:18:26;11.30;;;7.07;;
19030;SDS011;9648;51.130;13.978;2023-06-22T04:20:53;11.15;;;7.28;;
19030;SDS011;9648;51.130;13.978;2023-06-22T04:23:21;11.15;;;7.50;;
19030;SDS011;9648;51.130;13.978;2023-06-22T04:25:47;8.55;;;7.00;;
19030;SDS011;9648;51.130;13.978;2023-06-22T04:28:14;9.90;;;7.50;;
19030;SDS011;9648;51.130;13.978;2023-06-22T04:30:41;11.27;;;7.93;;
19030;SDS011;9648;51.130;13.978;2023-06-22T04:33:11;13.33;;;7.53;;
19030;SDS011;9648;51.130;13.978;2023-06-22T04:35:38;10.80;;;8.00;;
19030;SDS011;9648;51.130;13.978;2023-06-22T04:38:06;12.70;;;8.38;;
19030;SDS011;9648;51.130;13.978;2023-06-22T04:40:34;11.98;;;8.10;;
19030;SDS011;9648;51.130;13.978;2023-06-22T04:43:01;10.45;;;8.50;;
19030;SDS011;9648;51.130;13.978;2023-06-22T04:45:28;11.75;;;8.63;;
19030;SDS011;9648;51.130;13.978;2023-06-22T04:47:55;11.38;;;8.43;;
19030;SDS011;9648;51.130;13.978;2023-06-22T04:50:22;10.90;;;8.15;;
19030;SDS011;9648;51.130;13.978;2023-06-22T04:52:49;11.60;;;9.13;;
19030;SDS011;9648;51.130;13.978;2023-06-22T04:55:16;12.57;;;9.57;;
19030;SDS011;9648;51.130;13.978;2023-06-22T04:57:47;11.45;;;8.68;;
19030;SDS011;9648;51.130;13.978;2023-06-22T05:00:14;13.43;;;9.57;;
19030;SDS011;9648;51.130;13.978;2023-06-22T05:02:43;14.13;;;9.20;;
19030;SDS011;9648;51.130;13.978;2023-06-22T05:05:10;11.98;;;9.23;;
19030;SDS011;9648;51.130;13.978;2023-06-22T05:07:39;14.93;;;9.20;;
19030;SDS011;9648;51.130;13.978;2023-06-22T05:10:08;12.40;;;8.70;;
19030;SDS011;9648;51.130;13.978;2023-06-22T05:12:37;13.20;;;9.70;;
19030;SDS011;9648;51.130;13.978;2023-06-22T05:15:07;13.18;;;9.50;;
19030;SDS011;9648;51.130;13.978;2023-06-22T05:17:34;13.68;;;9.65;;
19030;SDS011;9648;51.130;13.978;2023-06-22T05:20:01;14.32;;;9.27;;
19030;SDS011;9648;51.130;13.978;2023-06-22T05:22:31;13.65;;;10.07;;
19030;SDS011;9648;51.130;13.978;2023-06-22T05:24:58;12.15;;;9.65;;
19030;SDS011;9648;51.130;13.978;2023-06-22T05:27:24;12.43;;;9.40;;
19030;SDS011;9648;51.130;13.978;2023-06-22T05:29:51;12.48;;;9.48;;
19030;SDS011;9648;51.130;13.978;2023-06-22T05:32:19;15.38;;;10.13;;
19030;SDS011;9648;51.130;13.978;2023-06-22T05:34:46;14.70;;;10.13;;
19030;SDS011;9648;51.130;13.978;2023-06-22T05:37:12;12.73;;;9.75;;
19030;SDS011;9648;51.130;13.978;2023-06-22T05:39:39;13.60;;;10.13;;
19030;SDS011;9648;51.130;13.978;2023-06-22T05:42:07;14.32;;;10.57;;
19030;SDS011;9648;51.130;13.978;2023-06-22T05:44:34;10.30;;;8.82;;
19030;SDS011;9648;51.130;13.978;2023-06-22T05:47:02;13.45;;;10.93;;
19030;SDS011;9648;51.130;13.978;2023-06-22T05:49:31;13.00;;;10.50;;
19030;SDS011;9648;51.130;13.978;2023-06-22T05:51:58;13.32;;;10.02;;
19030;SDS011;9648;51.130;13.978;2023-06-22T05:54:26;11.55;;;9.40;;
19030;SDS011;9648;51.130;13.978;2023-06-22T05:56:53;9.90;;;8.90;;
19030;SDS011;9648;51.130;13.978;2023-06-22T05:59:20;13.80;;;10.18;;
19030;SDS011;9648;51.130;13.978;2023-06-22T06:01:46;12.50;;;10.27;;
19030;SDS011;9648;51.130;13.978;2023-06-22T06:04:15;11.68;;;9.27;;
19030;SDS011;9648;51.130;13.978;2023-06-22T06:06:43;11.10;;;8.75;;
19030;SDS011;9648;51.130;13.978;2023-06-22T06:09:12;9.40;;;8.40;;
19030;SDS011;9648;51.130;13.978;2023-06-22T06:11:39;10.45;;;9.35;;
19030;SDS011;9648;51.130;13.978;2023-06-22T06:14:05;10.65;;;9.07;;
19030;SDS011;9648;51.130;13.978;2023-06-22T06:16:32;12.30;;;10.20;;
19030;SDS011;9648;51.130;13.978;2023-06-22T06:18:59;13.03;;;11.17;;
19030;SDS011;9648;51.130;13.978;2023-06-22T06:21:25;12.45;;;10.13;;
19030;SDS011;9648;51.130;13.978;2023-06-22T06:23:53;11.90;;;10.02;;
19030;SDS011;9648;51.130;13.978;2023-06-22T06:26:20;13.02;;;10.00;;
19030;SDS011;9648;51.130;13.978;2023-06-22T06:28:52;11.63;;;10.43;;
19030;SDS011;9648;51.130;13.978;2023-06-22T06:31:19;11.00;;;9.90;;
19030;SDS011;9648;51.130;13.978;2023-06-22T06:33:46;10.77;;;9.68;;
19030;SDS011;9648;51.130;13.978;2023-06-22T06:36:16;11.30;;;10.10;;
19030;SDS011;9648;51.130;13.978;2023-06-22T06:38:43;11.15;;;9.63;;
19030;SDS011;9648;51.130;13.978;2023-06-22T06:41:14;11.80;;;10.20;;
19030;SDS011;9648;51.130;13.978;2023-06-22T06:43:41;11.43;;;10.07;;
19030;SDS011;9648;51.130;13.978;2023-06-22T06:46:08;11.52;;;10.23;;
19030;SDS011;9648;51.130;13.978;2023-06-22T06:48:35;13.43;;;10.60;;
19030;SDS011;9648;51.130;13.978;2023-06-22T06:51:02;10.77;;;9.43;;
19030;SDS011;9648;51.130;13.978;2023-06-22T06:53:28;11.70;;;9.70;;
19030;SDS011;9648;51.130;13.978;2023-06-22T06:55:55;11.43;;;9.40;;
19030;SDS011;9648;51.130;13.978;2023-06-22T06:58:23;10.73;;;9.50;;
19030;SDS011;9648;51.130;13.978;2023-06-22T07:00:50;13.57;;;10.52;;
19030;SDS011;9648;51.130;13.978;2023-06-22T07:03:16;12.18;;;10.18;;
19030;SDS011;9648;51.130;13.978;2023-06-22T07:05:43;13.00;;;10.57;;
19030;SDS011;9648;51.130;13.978;2023-06-22T07:08:10;13.15;;;9.60;;
19030;SDS011;9648;51.130;13.978;2023-06-22T07:10:37;13.75;;;9.30;;
19030;SDS011;9648;51.130;13.978;2023-06-22T07:13:03;13.90;;;9.82;;
19030;SDS011;9648;51.130;13.978;2023-06-22T07:15:31;13.68;;;9.73;;
19030;SDS011;9648;51.130;13.978;2023-06-22T07:17:58;12.60;;;9.63;;
19030;SDS011;9648;51.130;13.978;2023-06-22T07:20:25;12.48;;;9.93;;
19030;SDS011;9648;51.130;13.978;2023-06-22T07:22:51;12.52;;;10.65;;
19030;SDS011;9648;51.130;13.978;2023-06-22T07:25:18;13.70;;;10.13;;
19030;SDS011;9648;51.130;13.978;2023-06-22T07:27:46;11.27;;;9.73;;
19030;SDS011;9648;51.130;13.978;2023-06-22T07:30:23;14.38;;;10.35;;
19030;SDS011;9648;51.130;13.978;2023-06-22T07:32:52;12.68;;;10.05;;
19030;SDS011;9648;51.130;13.978;2023-06-22T07:35:19;10.95;;;9.60;;
19030;SDS011;9648;51.130;13.978;2023-06-22T07:37:45;11.90;;;9.68;;
19030;SDS011;9648;51.130;13.978;2023-06-22T07:40:12;11.45;;;9.73;;
19030;SDS011;9648;51.130;13.978;2023-06-22T07:42:39;11.45;;;10.18;;
19030;SDS011;9648;51.130;13.978;2023-06-22T07:45:12;12.82;;;10.35;;
19030;SDS011;9648;51.130;13.978;2023-06-22T07:47:39;12.95;;;9.75;;
19030;SDS011;9648;51.130;13.978;2023-06-22T07:50:07;13.05;;;10.30;;
19030;SDS011;9648;51.130;13.978;2023-06-22T07:52:34;10.73;;;9.23;;
19030;SDS011;9648;51.130;13.978;2023-06-22T07:55:01;12.60;;;10.10;;
19030;SDS011;9648;51.130;13.978;2023-06-22T07:57:28;11.55;;;9.70;;
19030;SDS011;9648;51.130;13.978;2023-06-22T07:59:58;10.93;;;9.60;;
19030;SDS011;9648;51.130;13.978;2023-06-22T08:02:25;13.73;;;10.25;;
19030;SDS011;9648;51.130;13.978;2023-06-22T08:04:52;12.73;;;10.10;;
19030;SDS011;9648;51.130;13.978;2023-06-22T08:07:20;12.32;;;10.40;;
19030;SDS011;9648;51.130;13.978;2023-06-22T08:09:47;12.27;;;9.93;;
19030;SDS011;9648;51.130;13.978;2023-06-22T08:12:15;11.30;;;9.65;;
19030;SDS011;9648;51.130;13.978;2023-06-22T08:14:42;12.55;;;10.30;;
19030;SDS011;9648;51.130;13.978;2023-06-22T08:17:11;11.37;;;10.00;;
19030;SDS011;9648;51.130;13.978;2023-06-22T08:19:39;10.98;;;9.45;;
19030;SDS011;9648;51.130;13.978;2023-06-22T08:22:06;12.00;;;9.98;;
19030;SDS011;9648;51.130;13.978;2023-06-22T08:24:34;11.88;;;10.00;;
19030;SDS011;9648;51.130;13.978;2023-06-22T08:27:00;11.13;;;9.27;;
19030;SDS011;9648;51.130;13.978;2023-06-22T08:29:27;10.27;;;9.18;;
19030;SDS011;9648;51.130;13.978;2023-06-22T08:31:54;12.35;;;9.27;;
19030;SDS011;9648;51.130;13.978;2023-06-22T08:34:20;11.45;;;9.35;;
19030;SDS011;9648;51.130;13.978;2023-06-22T08:36:52;11.18;;;9.35;;
19030;SDS011;9648;51.130;13.978;2023-06-22T08:39:19;11.30;;;9.13;;
19030;SDS011;9648;51.130;13.978;2023-06-22T08:41:47;11.75;;;8.68;;
19030;SDS011;9648;51.130;13.978;2023-06-22T08:44:17;12.93;;;9.23;;
19030;SDS011;9648;51.130;13.978;2023-06-22T08:46:44;11.10;;;8.57;;
19030;SDS011;9648;51.130;13.978;2023-06-22T08:49:11;11.65;;;8.75;;
19030;SDS011;9648;51.130;13.978;2023-06-22T08:51:38;11.32;;;8.85;;
19030;SDS011;9648;51.130;13.978;2023-06-22T08:54:05;10.27;;;8.75;;
19030;SDS011;9648;51.130;13.978;2023-06-22T08:56:31;11.48;;;8.45;;
19030;SDS011;9648;51.130;13.978;2023-06-22T08:58:59;10.52;;;8.13;;
19030;SDS011;9648;51.130;13.978;2023-06-22T09:01:26;11.07;;;8.27;;
19030;SDS011;9648;51.130;13.978;2023-06-22T09:03:52;10.30;;;8.57;;
19030;SDS011;9648;51.130;13.978;2023-06-22T09:06:23;10.33;;;8.63;;
19030;SDS011;9648;51.130;13.978;2023-06-22T09:08:50;9.77;;;8.50;;
19030;SDS011;9648;51.130;13.978;2023-06-22T09:11:16;9.40;;;8.10;;
19030;SDS011;9648;51.130;13.978;2023-06-22T09:13:43;9.18;;;8.07;;
19030;SDS011;9648;51.130;13.978;2023-06-22T09:16:12;11.98;;;9.00;;
19030;SDS011;9648;51.130;13.978;2023-06-22T09:18:39;9.55;;;7.95;;
19030;SDS011;9648;51.130;13.978;2023-06-22T09:21:06;9.43;;;8.15;;
19030;SDS011;9648;51.130;13.978;2023-06-22T09:23:33;11.93;;;9.30;;
19030;SDS011;9648;51.130;13.978;2023-06-22T09:26:00;10.27;;;8.77;;
19030;SDS011;9648;51.130;13.978;2023-06-22T09:28:29;10.45;;;8.10;;
19030;SDS011;9648;51.130;13.978;2023-06-22T09:30:55;11.30;;;8.20;;
19030;SDS011;9648;51.130;13.978;2023-06-22T09:33:26;10.50;;;8.00;;
19030;SDS011;9648;51.130;13.978;2023-06-22T09:35:53;8.52;;;7.43;;
19030;SDS011;9648;51.130;13.978;2023-06-22T09:38:19;8.57;;;7.38;;
19030;SDS011;9648;51.130;13.978;2023-06-22T09:40:46;8.73;;;7.43;;
19030;SDS011;9648;51.130;13.978;2023-06-22T09:43:13;9.77;;;7.55;;
19030;SDS011;9648;51.130;13.978;2023-06-22T09:45:39;9.00;;;7.63;;
19030;SDS011;9648;51.130;13.978;2023-06-22T09:48:06;9.57;;;7.85;;
19030;SDS011;9648;51.130;13.978;2023-06-22T09:50:36;10.20;;;7.70;;
19030;SDS011;9648;51.130;13.978;2023-06-22T09:53:02;9.85;;;7.45;;
19030;SDS011;9648;51.130;13.978;2023-06-22T09:55:29;7.60;;;6.82;;
19030;SDS011;9648;51.130;13.978;2023-06-22T09:57:56;9.57;;;7.47;;
19030;SDS011;9648;51.130;13.978;2023-06-22T10:00:23;7.90;;;7.10;;
19030;SDS011;9648;51.130;13.978;2023-06-22T10:02:51;8.38;;;7.07;;
19030;SDS011;9648;51.130;13.978;2023-06-22T10:05:18;8.38;;;7.10;;
19030;SDS011;9648;51.130;13.978;2023-06-22T10:07:46;10.40;;;7.72;;
19030;SDS011;9648;51.130;13.978;2023-06-22T10:10:13;8.35;;;7.30;;
19030;SDS011;9648;51.130;13.978;2023-06-22T10:12:44;7.70;;;6.85;;
19030;SDS011;9648;51.130;13.978;2023-06-22T10:15:12;9.80;;;7.45;;
19030;SDS011;9648;51.130;13.978;2023-06-22T10:17:39;8.63;;;7.07;;
19030;SDS011;9648;51.130;13.978;2023-06-22T10:20:06;8.52;;;6.60;;
19030;SDS011;9648;51.130;13.978;2023-06-22T10:22:38;8.77;;;7.25;;
19030;SDS011;9648;51.130;13.978;2023-06-22T10:25:07;7.70;;;6.90;;
19030;SDS011;9648;51.130;13.978;2023-06-22T10:27:36;8.10;;;7.00;;
19030;SDS011;9648;51.130;13.978;2023-06-22T10:30:05;8.88;;;6.70;;
19030;SDS011;9648;51.130;13.978;2023-06-22T10:32:32;8.15;;;6.75;;
19030;SDS011;9648;51.130;13.978;2023-06-22T10:34:59;9.00;;;6.82;;
19030;SDS011;9648;51.130;13.978;2023-06-22T10:37:26;8.00;;;6.30;;
19030;SDS011;9648;51.130;13.978;2023-06-22T10:39:52;7.45;;;6.60;;
19030;SDS011;9648;51.130;13.978;2023-06-22T10:42:20;9.13;;;6.85;;
19030;SDS011;9648;51.130;13.978;2023-06-22T10:44:47;8.65;;;6.65;;
19030;SDS011;9648;51.130;13.978;2023-06-22T10:47:13;8.20;;;6.22;;
19030;SDS011;9648;51.130;13.978;2023-06-22T10:49:40;7.40;;;6.50;;
19030;SDS011;9648;51.130;13.978;2023-06-22T10:52:08;8.30;;;6.80;;
19030;SDS011;9648;51.130;13.978;2023-06-22T10:54:35;8.45;;;6.82;;
19030;SDS011;9648;51.130;13.978;2023-06-22T10:57:02;7.15;;;6.28;;
19030;SDS011;9648;51.130;13.978;2023-06-22T10:59:31;7.50;;;6.37;;
19030;SDS011;9648;51.130;13.978;2023-06-22T11:01:58;9.43;;;6.75;;
19030;SDS011;9648;51.130;13.978;2023-06-22T11:04:25;10.38;;;6.47;;
19030;SDS011;9648;51.130;13.978;2023-06-22T11:06:51;7.82;;;6.35;;
19030;SDS011;9648;51.130;13.978;2023-06-22T11:09:18;8.02;;;6.95;;
19030;SDS011;9648;51.130;13.978;2023-06-22T11:11:46;8.00;;;6.53;;
19030;SDS011;9648;51.130;13.978;2023-06-22T11:14:13;8.02;;;6.32;;
19030;SDS011;9648;51.130;13.978;2023-06-22T11:16:41;8.82;;;6.95;;
19030;SDS011;9648;51.130;13.978;2023-06-22T11:19:07;9.65;;;6.82;;
19030;SDS011;9648;51.130;13.978;2023-06-22T11:21:34;7.43;;;6.60;;
19030;SDS011;9648;51.130;13.978;2023-06-22T11:24:01;9.65;;;6.78;;
19030;SDS011;9648;51.130;13.978;2023-06-22T11:26:28;8.52;;;6.88;;
19030;SDS011;9648;51.130;13.978;2023-06-22T11:28:55;8.15;;;7.03;;
19030;SDS011;9648;51.130;13.978;2023-06-22T11:31:21;9.23;;;7.00;;
19030;SDS011;9648;51.130;13.978;2023-06-22T11:33:50;8.03;;;7.10;;
19030;SDS011;9648;51.130;13.978;2023-06-22T11:36:17;8.75;;;6.75;;
19030;SDS011;9648;51.130;13.978;2023-06-22T11:38:44;7.38;;;6.55;;
19030;SDS011;9648;51.130;13.978;2023-06-22T11:41:11;8.48;;;6.63;;
19030;SDS011;9648;51.130;13.978;2023-06-22T11:43:38;8.02;;;6.53;;
19030;SDS011;9648;51.130;13.978;2023-06-22T11:46:05;7.50;;;6.70;;
19030;SDS011;9648;51.130;13.978;2023-06-22T11:48:31;7.30;;;6.25;;
19030;SDS011;9648;51.130;13.978;2023-06-22T11:50:59;7.53;;;6.78;;
19030;SDS011;9648;51.130;13.978;2023-06-22T11:53:27;8.43;;;6.57;;
19030;SDS011;9648;51.130;13.978;2023-06-22T11:55:54;8.88;;;6.65;;
19030;SDS011;9648;51.130;13.978;2023-06-22T11:58:21;7.17;;;6.47;;
19030;SDS011;9648;51.130;13.978;2023-06-22T12:00:48;8.20;;;6.80;;
19030;SDS011;9648;51.130;13.978;2023-06-22T12:03:17;7.93;;;6.70;;
19030;SDS011;9648;51.130;13.978;2023-06-22T12:05:43;8.23;;;6.53;;
19030;SDS011;9648;51.130;13.978;2023-06-22T12:08:11;7.22;;;6.50;;
19030;SDS011;9648;51.130;13.978;2023-06-22T12:10:38;8.77;;;6.75;;
19030;SDS011;9648;51.130;13.978;2023-06-22T12:13:05;7.55;;;6.55;;
19030;SDS011;9648;51.130;13.978;2023-06-22T12:15:32;8.60;;;7.30;;
19030;SDS011;9648;51.130;13.978;2023-06-22T12:17:58;8.65;;;6.70;;
19030;SDS011;9648;51.130;13.978;2023-06-22T12:20:26;9.82;;;7.65;;
19030;SDS011;9648;51.130;13.978;2023-06-22T12:22:53;8.02;;;7.13;;
19030;SDS011;9648;51.130;13.978;2023-06-22T12:25:22;8.48;;;7.22;;
19030;SDS011;9648;51.130;13.978;2023-06-22T12:27:49;9.82;;;7.22;;
19030;SDS011;9648;51.130;13.978;2023-06-22T12:30:16;8.68;;;7.05;;
19030;SDS011;9648;51.130;13.978;2023-06-22T12:32:43;7.63;;;6.50;;
19030;SDS011;9648;51.130;13.978;2023-06-22T12:35:09;8.60;;;6.85;;
19030;SDS011;9648;51.130;13.978;2023-06-22T12:37:38;7.33;;;6.53;;
19030;SDS011;9648;51.130;13.978;2023-06-22T12:40:06;9.65;;;7.00;;
19030;SDS011;9648;51.130;13.978;2023-06-22T12:42:35;8.15;;;6.60;;
19030;SDS011;9648;51.130;13.978;2023-06-22T12:45:02;7.72;;;6.80;;
19030;SDS011;9648;51.130;13.978;2023-06-22T12:47:29;8.43;;;7.10;;
19030;SDS011;9648;51.130;13.978;2023-06-22T12:49:56;9.05;;;7.20;;
19030;SDS011;9648;51.130;13.978;2023-06-22T12:52:23;8.73;;;7.00;;
19030;SDS011;9648;51.130;13.978;2023-06-22T12:54:50;9.43;;;7.25;;
19030;SDS011;9648;51.130;13.978;2023-06-22T12:57:17;8.40;;;7.00;;
19030;SDS011;9648;51.130;13.978;2023-06-22T12:59:45;9.23;;;6.75;;
19030;SDS011;9648;51.130;13.978;2023-06-22T13:02:12;8.60;;;7.00;;
19030;SDS011;9648;51.130;13.978;2023-06-22T13:04:39;9.20;;;6.80;;
19030;SDS011;9648;51.130;13.978;2023-06-22T13:07:06;8.57;;;7.07;;
19030;SDS011;9648;51.130;13.978;2023-06-22T13:09:33;9.40;;;6.75;;
19030;SDS011;9648;51.130;13.978;2023-06-22T13:11:59;9.32;;;6.88;;
19030;SDS011;9648;51.130;13.978;2023-06-22T13:14:26;8.27;;;7.05;;
19030;SDS011;9648;51.130;13.978;2023-06-22T13:16:54;8.45;;;7.00;;
19030;SDS011;9648;51.130;13.978;2023-06-22T13:19:21;7.95;;;7.05;;
19030;SDS011;9648;51.130;13.978;2023-06-22T13:21:47;8.98;;;7.20;;
19030;SDS011;9648;51.130;13.978;2023-06-22T13:24:14;10.20;;;6.87;;
19030;SDS011;9648;51.130;13.978;2023-06-22T13:26:41;9.40;;;6.90;;
19030;SDS011;9648;51.130;13.978;2023-06-22T13:29:08;9.37;;;6.97;;
19030;SDS011;9648;51.130;13.978;2023-06-22T13:31:34;8.98;;;7.32;;
19030;SDS011;9648;51.130;13.978;2023-06-22T13:34:02;7.82;;;6.90;;
19030;SDS011;9648;51.130;13.978;2023-06-22T13:36:29;8.48;;;7.00;;
19030;SDS011;9648;51.130;13.978;2023-06-22T13:38:56;8.13;;;7.18;;
19030;SDS011;9648;51.130;13.978;2023-06-22T13:41:23;7.70;;;6.90;;
19030;SDS011;9648;51.130;13.978;2023-06-22T13:43:51;8.43;;;6.93;;
19030;SDS011;9648;51.130;13.978;2023-06-22T13:46:17;10.50;;;7.20;;
19030;SDS011;9648;51.130;13.978;2023-06-22T13:48:44;9.45;;;6.63;;
19030;SDS011;9648;51.130;13.978;2023-06-22T13:51:12;8.25;;;6.97;;
19030;SDS011;9648;51.130;13.978;2023-06-22T13:53:38;8.80;;;6.85;;
19030;SDS011;9648;51.130;13.978;2023-06-22T13:56:05;8.27;;;6.65;;
19030;SDS011;9648;51.130;13.978;2023-06-22T13:58:32;10.25;;;6.85;;
19030;SDS011;9648;51.130;13.978;2023-06-22T14:00:58;8.30;;;6.63;;
19030;SDS011;9648;51.130;13.978;2023-06-22T14:03:25;8.68;;;6.90;;
19030;SDS011;9648;51.130;13.978;2023-06-22T14:05:52;10.80;;;7.20;;
19030;SDS011;9648;51.130;13.978;2023-06-22T14:08:22;8.13;;;6.67;;
19030;SDS011;9648;51.130;13.978;2023-06-22T14:10:50;7.72;;;6.55;;
19030;SDS011;9648;51.130;13.978;2023-06-22T14:13:18;8.65;;;6.50;;
19030;SDS011;9648;51.130;13.978;2023-06-22T14:15:45;9.07;;;6.68;;
19030;SDS011;9648;51.130;13.978;2023-06-22T14:18:13;9.63;;;7.05;;
19030;SDS011;9648;51.130;13.978;2023-06-22T14:20:40;8.45;;;6.80;;
19030;SDS011;9648;51.130;13.978;2023-06-22T14:23:07;9.10;;;6.70;;
19030;SDS011;9648;51.130;13.978;2023-06-22T14:25:35;7.50;;;6.68;;
19030;SDS011;9648;51.130;13.978;2023-06-22T14:28:01;8.52;;;6.60;;
19030;SDS011;9648;51.130;13.978;2023-06-22T14:30:28;8.38;;;6.60;;
19030;SDS011;9648;51.130;13.978;2023-06-22T14:32:55;9.68;;;7.00;;
19030;SDS011;9648;51.130;13.978;2023-06-22T14:35:21;11.40;;;7.30;;
19030;SDS011;9648;51.130;13.978;2023-06-22T14:37:49;9.13;;;6.97;;
19030;SDS011;9648;51.130;13.978;2023-06-22T14:40:16;9.15;;;6.97;;
19030;SDS011;9648;51.130;13.978;2023-06-22T14:42:44;8.25;;;7.40;;